sensor_id;sensor_type;location;lat;lon;timestamp;temperature;humidity
26326;DHT22;14032;52.510;7.342;2024-03-02T00:00:07;7.20;99.90
26326;DHT22;14032;52.510;7.342;2024-03-02T00:02:43;7.10;99.90
26326;DHT22;14032;52.510;7.342;2024-03-02T00:05:14;7.20;99.90
26326;DHT22;14032;52.510;7.342;2024-03-02T00:07:41;7.10;99.90
26326;DHT22;14032;52.510;7.342;2024-03-02T00:10:13;7.20;99.90
26326;DHT22;14032;52.510;7.342;2024-03-02T00:12:40;7.10;99.90
26326;DHT22;14032;52.510;7.342;2024-03-02T00:15:31;7.10;99.90
26326;DHT22;14032;52.510;7.342;2024-03-02T00:18:01;7.10;99.90
26326;DHT22;14032;52.510;7.342;2024-03-02T00:20:26;7.10;99.90
26326;DHT22;14032;52.510;7.342;2024-03-02T00:23:05;7.10;99.90
26326;DHT22;14032;52.510;7.342;2024-03-02T00:26:10;7.10;99.90
26326;DHT22;14032;52.510;7.342;2024-03-02T00:28:34;7.10;99.90
26326;DHT22;14032;52.510;7.342;2024-03-02T00:31:07;7.10;99.90
26326;DHT22;14032;52.510;7.342;2024-03-02T00:33:45;7.10;99.90
26326;DHT22;14032;52.510;7.342;2024-03-02T00:36:14;7.10;99.90
26326;DHT22;14032;52.510;7.342;2024-03-02T00:38:53;7.10;99.90
26326;DHT22;14032;52.510;7.342;2024-03-02T00:41:31;7.10;99.90
26326;DHT22;14032;52.510;7.342;2024-03-02T00:43:57;7.10;99.90
26326;DHT22;14032;52.510;7.342;2024-03-02T00:46:23;7.10;99.90
26326;DHT22;14032;52.510;7.342;2024-03-02T00:48:56;7.20;99.90
26326;DHT22;14032;52.510;7.342;2024-03-02T00:51:24;7.20;99.90
26326;DHT22;14032;52.510;7.342;2024-03-02T00:53:51;7.30;99.90
26326;DHT22;14032;52.510;7.342;2024-03-02T00:56:18;7.30;99.90
26326;DHT22;14032;52.510;7.342;2024-03-02T00:58:44;7.30;99.90
26326;DHT22;14032;52.510;7.342;2024-03-02T01:01:10;7.30;99.90
26326;DHT22;14032;52.510;7.342;2024-03-02T01:03:35;7.40;99.90
26326;DHT22;14032;52.510;7.342;2024-03-02T01:06:03;7.40;99.90
26326;DHT22;14032;52.510;7.342;2024-03-02T01:08:28;7.40;99.90
26326;DHT22;14032;52.510;7.342;2024-03-02T01:10:54;7.40;99.90
26326;DHT22;14032;52.510;7.342;2024-03-02T01:13:24;7.50;99.90
26326;DHT22;14032;52.510;7.342;2024-03-02T01:15:50;7.50;99.90
26326;DHT22;14032;52.510;7.342;2024-03-02T01:18:15;7.50;99.90
26326;DHT22;14032;52.510;7.342;2024-03-02T01:20:41;7.50;99.90
26326;DHT22;14032;52.510;7.342;2024-03-02T01:23:07;7.50;99.90
26326;DHT22;14032;52.510;7.342;2024-03-02T01:25:32;7.60;99.90
26326;DHT22;14032;52.510;7.342;2024-03-02T01:27:58;7.50;99.90
26326;DHT22;14032;52.510;7.342;2024-03-02T01:30:23;7.60;99.90
26326;DHT22;14032;52.510;7.342;2024-03-02T01:32:49;7.60;99.90
26326;DHT22;14032;52.510;7.342;2024-03-02T01:35:15;7.60;99.90
26326;DHT22;14032;52.510;7.342;2024-03-02T01:37:41;7.70;99.90
26326;DHT22;14032;52.510;7.342;2024-03-02T01:40:07;7.60;99.90
26326;DHT22;14032;52.510;7.342;2024-03-02T01:42:38;7.60;99.90
26326;DHT22;14032;52.510;7.342;2024-03-02T01:45:08;7.70;99.90
26326;DHT22;14032;52.510;7.342;2024-03-02T01:47:35;7.60;99.90
26326;DHT22;14032;52.510;7.342;2024-03-02T01:50:01;7.70;99.90
26326;DHT22;14032;52.510;7.342;2024-03-02T01:52:27;7.70;99.90
26326;DHT22;14032;52.510;7.342;2024-03-02T01:54:53;7.70;99.90
26326;DHT22;14032;52.510;7.342;2024-03-02T01:57:20;7.70;99.90
26326;DHT22;14032;52.510;7.342;2024-03-02T01:59:46;7.70;99.90
26326;DHT22;14032;52.510;7.342;2024-03-02T02:02:16;7.70;99.90
26326;DHT22;14032;52.510;7.342;2024-03-02T02:04:42;7.70;99.90
26326;DHT22;14032;52.510;7.342;2024-03-02T02:07:08;7.70;99.90
26326;DHT22;14032;52.510;7.342;2024-03-02T02:09:33;7.70;99.90
26326;DHT22;14032;52.510;7.342;2024-03-02T02:11:59;7.70;99.90
26326;DHT22;14032;52.510;7.342;2024-03-02T02:14:25;7.70;99.90
26326;DHT22;14032;52.510;7.342;2024-03-02T02:16:51;7.70;99.90
26326;DHT22;14032;52.510;7.342;2024-03-02T02:19:17;7.70;99.90
26326;DHT22;14032;52.510;7.342;2024-03-02T02:21:43;7.70;99.90
26326;DHT22;14032;52.510;7.342;2024-03-02T02:24:09;7.70;99.90
26326;DHT22;14032;52.510;7.342;2024-03-02T02:26:35;7.70;99.90
26326;DHT22;14032;52.510;7.342;2024-03-02T02:29:00;7.70;99.90
26326;DHT22;14032;52.510;7.342;2024-03-02T02:31:26;7.70;99.90
26326;DHT22;14032;52.510;7.342;2024-03-02T02:33:52;7.80;99.90
26326;DHT22;14032;52.510;7.342;2024-03-02T02:36:18;7.80;99.90
26326;DHT22;14032;52.510;7.342;2024-03-02T02:38:46;7.70;99.90
26326;DHT22;14032;52.510;7.342;2024-03-02T02:41:13;7.70;99.90
26326;DHT22;14032;52.510;7.342;2024-03-02T02:43:40;7.60;99.90
26326;DHT22;14032;52.510;7.342;2024-03-02T02:46:05;7.60;99.90
26326;DHT22;14032;52.510;7.342;2024-03-02T02:48:34;7.60;99.90
26326;DHT22;14032;52.510;7.342;2024-03-02T02:50:59;7.50;99.90
26326;DHT22;14032;52.510;7.342;2024-03-02T02:53:25;7.50;99.90
26326;DHT22;14032;52.510;7.342;2024-03-02T02:55:50;7.40;99.90
26326;DHT22;14032;52.510;7.342;2024-03-02T02:58:16;7.40;99.90
26326;DHT22;14032;52.510;7.342;2024-03-02T03:00:42;7.40;99.90
26326;DHT22;14032;52.510;7.342;2024-03-02T03:03:08;7.40;99.90
26326;DHT22;14032;52.510;7.342;2024-03-02T03:05:33;7.30;99.90
26326;DHT22;14032;52.510;7.342;2024-03-02T03:07:59;7.40;99.90
26326;DHT22;14032;52.510;7.342;2024-03-02T03:10:26;7.30;99.90
26326;DHT22;14032;52.510;7.342;2024-03-02T03:12:53;7.30;99.90
26326;DHT22;14032;52.510;7.342;2024-03-02T03:15:18;7.30;99.90
26326;DHT22;14032;52.510;7.342;2024-03-02T03:17:44;7.20;99.90
26326;DHT22;14032;52.510;7.342;2024-03-02T03:20:12;7.30;99.90
26326;DHT22;14032;52.510;7.342;2024-03-02T03:22:38;7.30;99.90
26326;DHT22;14032;52.510;7.342;2024-03-02T03:25:04;7.30;99.90
26326;DHT22;14032;52.510;7.342;2024-03-02T03:27:30;7.30;99.90
26326;DHT22;14032;52.510;7.342;2024-03-02T03:29:56;7.30;99.90
26326;DHT22;14032;52.510;7.342;2024-03-02T03:32:22;7.30;99.90
26326;DHT22;14032;52.510;7.342;2024-03-02T03:34:47;7.30;99.90
26326;DHT22;14032;52.510;7.342;2024-03-02T03:37:14;7.30;99.90
26326;DHT22;14032;52.510;7.342;2024-03-02T03:39:39;7.30;99.90
26326;DHT22;14032;52.510;7.342;2024-03-02T03:42:05;7.30;99.90
26326;DHT22;14032;52.510;7.342;2024-03-02T03:44:31;7.30;99.90
26326;DHT22;14032;52.510;7.342;2024-03-02T03:46:56;7.30;99.90
26326;DHT22;14032;52.510;7.342;2024-03-02T03:49:22;7.30;99.90
26326;DHT22;14032;52.510;7.342;2024-03-02T03:51:47;7.30;99.90
26326;DHT22;14032;52.510;7.342;2024-03-02T03:54:13;7.30;99.90
26326;DHT22;14032;52.510;7.342;2024-03-02T03:56:39;7.30;99.90
26326;DHT22;14032;52.510;7.342;2024-03-02T03:59:04;7.20;99.90
26326;DHT22;14032;52.510;7.342;2024-03-02T04:01:30;7.20;99.90
26326;DHT22;14032;52.510;7.342;2024-03-02T04:03:57;7.20;99.90
26326;DHT22;14032;52.510;7.342;2024-03-02T04:06:23;7.10;99.90
26326;DHT22;14032;52.510;7.342;2024-03-02T04:08:48;7.10;99.90
26326;DHT22;14032;52.510;7.342;2024-03-02T04:11:14;7.10;99.90
26326;DHT22;14032;52.510;7.342;2024-03-02T04:13:40;7.10;99.90
26326;DHT22;14032;52.510;7.342;2024-03-02T04:16:06;7.10;99.90
26326;DHT22;14032;52.510;7.342;2024-03-02T04:18:31;7.10;99.90
26326;DHT22;14032;52.510;7.342;2024-03-02T04:21:00;7.00;99.90
26326;DHT22;14032;52.510;7.342;2024-03-02T04:23:28;7.00;99.90
26326;DHT22;14032;52.510;7.342;2024-03-02T04:25:55;7.00;99.90
26326;DHT22;14032;52.510;7.342;2024-03-02T04:28:21;7.00;99.90
26326;DHT22;14032;52.510;7.342;2024-03-02T04:30:47;7.00;99.90
26326;DHT22;14032;52.510;7.342;2024-03-02T04:33:12;7.00;99.90
26326;DHT22;14032;52.510;7.342;2024-03-02T04:35:38;6.90;99.90
26326;DHT22;14032;52.510;7.342;2024-03-02T04:38:04;6.90;99.90
26326;DHT22;14032;52.510;7.342;2024-03-02T04:40:29;6.90;99.90
26326;DHT22;14032;52.510;7.342;2024-03-02T04:42:56;6.80;99.90
26326;DHT22;14032;52.510;7.342;2024-03-02T04:45:23;6.80;99.90
26326;DHT22;14032;52.510;7.342;2024-03-02T04:47:49;6.80;99.90
26326;DHT22;14032;52.510;7.342;2024-03-02T04:50:14;6.80;99.90
26326;DHT22;14032;52.510;7.342;2024-03-02T04:52:40;6.70;99.90
26326;DHT22;14032;52.510;7.342;2024-03-02T04:55:06;6.80;99.90
26326;DHT22;14032;52.510;7.342;2024-03-02T04:57:50;6.70;99.90
26326;DHT22;14032;52.510;7.342;2024-03-02T05:00:16;6.70;99.90
26326;DHT22;14032;52.510;7.342;2024-03-02T05:02:42;6.70;99.90
26326;DHT22;14032;52.510;7.342;2024-03-02T05:05:08;6.70;99.90
26326;DHT22;14032;52.510;7.342;2024-03-02T05:07:34;6.60;99.90
26326;DHT22;14032;52.510;7.342;2024-03-02T05:10:02;6.60;99.90
26326;DHT22;14032;52.510;7.342;2024-03-02T05:12:28;6.60;99.90
26326;DHT22;14032;52.510;7.342;2024-03-02T05:15:22;6.60;99.90
26326;DHT22;14032;52.510;7.342;2024-03-02T05:17:47;6.60;99.90
26326;DHT22;14032;52.510;7.342;2024-03-02T05:20:13;6.50;99.90
26326;DHT22;14032;52.510;7.342;2024-03-02T05:22:38;6.50;99.90
26326;DHT22;14032;52.510;7.342;2024-03-02T05:25:06;6.50;99.90
26326;DHT22;14032;52.510;7.342;2024-03-02T05:27:32;6.50;99.90
26326;DHT22;14032;52.510;7.342;2024-03-02T05:29:59;6.50;99.90
26326;DHT22;14032;52.510;7.342;2024-03-02T05:32:24;6.40;99.90
26326;DHT22;14032;52.510;7.342;2024-03-02T05:34:53;6.40;99.90
26326;DHT22;14032;52.510;7.342;2024-03-02T05:37:19;6.40;99.90
26326;DHT22;14032;52.510;7.342;2024-03-02T05:39:45;6.30;99.90
26326;DHT22;14032;52.510;7.342;2024-03-02T05:42:11;6.30;99.90
26326;DHT22;14032;52.510;7.342;2024-03-02T05:44:37;6.30;99.90
26326;DHT22;14032;52.510;7.342;2024-03-02T05:47:04;6.30;99.90
26326;DHT22;14032;52.510;7.342;2024-03-02T05:49:30;6.20;99.90
26326;DHT22;14032;52.510;7.342;2024-03-02T05:51:56;6.20;99.90
26326;DHT22;14032;52.510;7.342;2024-03-02T05:54:21;6.20;99.90
26326;DHT22;14032;52.510;7.342;2024-03-02T05:56:47;6.20;99.90
26326;DHT22;14032;52.510;7.342;2024-03-02T05:59:12;6.10;99.90
26326;DHT22;14032;52.510;7.342;2024-03-02T06:01:46;6.10;99.90
26326;DHT22;14032;52.510;7.342;2024-03-02T06:04:13;6.10;99.90
26326;DHT22;14032;52.510;7.342;2024-03-02T06:06:40;6.10;99.90
26326;DHT22;14032;52.510;7.342;2024-03-02T06:09:06;6.00;99.90
26326;DHT22;14032;52.510;7.342;2024-03-02T06:11:39;6.10;99.90
26326;DHT22;14032;52.510;7.342;2024-03-02T06:14:05;6.10;99.90
26326;DHT22;14032;52.510;7.342;2024-03-02T06:16:32;6.10;99.90
26326;DHT22;14032;52.510;7.342;2024-03-02T06:18:58;6.10;99.90
26326;DHT22;14032;52.510;7.342;2024-03-02T06:21:25;6.10;99.90
26326;DHT22;14032;52.510;7.342;2024-03-02T06:23:50;6.00;99.90
26326;DHT22;14032;52.510;7.342;2024-03-02T06:26:17;6.10;99.90
26326;DHT22;14032;52.510;7.342;2024-03-02T06:28:44;6.00;99.90
26326;DHT22;14032;52.510;7.342;2024-03-02T06:31:10;6.00;99.90
26326;DHT22;14032;52.510;7.342;2024-03-02T06:33:36;6.00;99.90
26326;DHT22;14032;52.510;7.342;2024-03-02T06:36:02;6.00;99.90
26326;DHT22;14032;52.510;7.342;2024-03-02T06:38:28;6.00;99.90
26326;DHT22;14032;52.510;7.342;2024-03-02T06:40:53;6.00;99.90
26326;DHT22;14032;52.510;7.342;2024-03-02T06:43:20;6.00;99.90
26326;DHT22;14032;52.510;7.342;2024-03-02T06:45:52;6.00;99.90
26326;DHT22;14032;52.510;7.342;2024-03-02T06:48:18;6.00;99.90
26326;DHT22;14032;52.510;7.342;2024-03-02T06:50:49;6.00;99.90
26326;DHT22;14032;52.510;7.342;2024-03-02T06:53:16;6.10;99.90
26326;DHT22;14032;52.510;7.342;2024-03-02T06:55:43;6.10;99.90
26326;DHT22;14032;52.510;7.342;2024-03-02T06:58:13;6.10;99.90
26326;DHT22;14032;52.510;7.342;2024-03-02T07:00:41;6.20;99.90
26326;DHT22;14032;52.510;7.342;2024-03-02T07:03:13;6.20;99.90
26326;DHT22;14032;52.510;7.342;2024-03-02T07:05:39;6.30;99.90
26326;DHT22;14032;52.510;7.342;2024-03-02T07:08:05;6.30;99.90
26326;DHT22;14032;52.510;7.342;2024-03-02T07:10:31;6.40;99.90
26326;DHT22;14032;52.510;7.342;2024-03-02T07:12:57;6.50;99.90
26326;DHT22;14032;52.510;7.342;2024-03-02T07:15:23;6.50;99.90
26326;DHT22;14032;52.510;7.342;2024-03-02T07:18:08;6.60;99.90
26326;DHT22;14032;52.510;7.342;2024-03-02T07:20:34;6.60;99.90
26326;DHT22;14032;52.510;7.342;2024-03-02T07:22:59;6.70;99.90
26326;DHT22;14032;52.510;7.342;2024-03-02T07:25:25;6.90;99.90
26326;DHT22;14032;52.510;7.342;2024-03-02T07:27:50;6.90;99.90
26326;DHT22;14032;52.510;7.342;2024-03-02T07:30:16;6.90;99.90
26326;DHT22;14032;52.510;7.342;2024-03-02T07:32:43;7.00;99.90
26326;DHT22;14032;52.510;7.342;2024-03-02T07:35:12;7.00;99.90
26326;DHT22;14032;52.510;7.342;2024-03-02T07:37:38;7.10;99.90
26326;DHT22;14032;52.510;7.342;2024-03-02T07:40:04;7.10;99.90
26326;DHT22;14032;52.510;7.342;2024-03-02T07:42:31;7.20;99.90
26326;DHT22;14032;52.510;7.342;2024-03-02T07:44:58;7.20;99.90
26326;DHT22;14032;52.510;7.342;2024-03-02T07:47:23;7.30;99.90
26326;DHT22;14032;52.510;7.342;2024-03-02T07:49:49;7.30;99.90
26326;DHT22;14032;52.510;7.342;2024-03-02T07:52:14;7.40;99.90
26326;DHT22;14032;52.510;7.342;2024-03-02T07:54:40;7.40;99.90
26326;DHT22;14032;52.510;7.342;2024-03-02T07:57:06;7.50;99.90
26326;DHT22;14032;52.510;7.342;2024-03-02T07:59:31;7.50;99.90
26326;DHT22;14032;52.510;7.342;2024-03-02T08:01:57;7.60;99.90
26326;DHT22;14032;52.510;7.342;2024-03-02T08:04:23;7.60;99.90
26326;DHT22;14032;52.510;7.342;2024-03-02T08:06:50;7.70;99.90
26326;DHT22;14032;52.510;7.342;2024-03-02T08:09:15;7.70;99.90
26326;DHT22;14032;52.510;7.342;2024-03-02T08:11:42;7.80;99.90
26326;DHT22;14032;52.510;7.342;2024-03-02T08:14:08;7.90;99.90
26326;DHT22;14032;52.510;7.342;2024-03-02T08:16:33;7.90;99.90
26326;DHT22;14032;52.510;7.342;2024-03-02T08:18:59;8.00;99.90
26326;DHT22;14032;52.510;7.342;2024-03-02T08:21:25;8.10;99.90
26326;DHT22;14032;52.510;7.342;2024-03-02T08:23:51;8.10;99.90
26326;DHT22;14032;52.510;7.342;2024-03-02T08:26:17;8.20;99.90
26326;DHT22;14032;52.510;7.342;2024-03-02T08:28:42;8.20;99.90
26326;DHT22;14032;52.510;7.342;2024-03-02T08:31:10;8.20;99.90
26326;DHT22;14032;52.510;7.342;2024-03-02T08:33:35;8.20;99.90
26326;DHT22;14032;52.510;7.342;2024-03-02T08:36:01;8.20;99.90
26326;DHT22;14032;52.510;7.342;2024-03-02T08:38:28;8.30;99.90
26326;DHT22;14032;52.510;7.342;2024-03-02T08:40:53;8.40;99.90
26326;DHT22;14032;52.510;7.342;2024-03-02T08:43:19;8.40;99.90
26326;DHT22;14032;52.510;7.342;2024-03-02T08:45:45;8.40;99.90
26326;DHT22;14032;52.510;7.342;2024-03-02T08:48:11;8.50;99.90
26326;DHT22;14032;52.510;7.342;2024-03-02T08:50:36;8.50;99.90
26326;DHT22;14032;52.510;7.342;2024-03-02T08:53:03;8.60;99.90
26326;DHT22;14032;52.510;7.342;2024-03-02T08:55:31;8.80;99.90
26326;DHT22;14032;52.510;7.342;2024-03-02T08:57:56;9.00;99.90
26326;DHT22;14032;52.510;7.342;2024-03-02T09:00:23;9.20;99.90
26326;DHT22;14032;52.510;7.342;2024-03-02T09:02:49;9.30;99.90
26326;DHT22;14032;52.510;7.342;2024-03-02T09:05:15;9.40;99.90
26326;DHT22;14032;52.510;7.342;2024-03-02T09:07:41;9.50;99.90
26326;DHT22;14032;52.510;7.342;2024-03-02T09:10:08;9.60;99.90
26326;DHT22;14032;52.510;7.342;2024-03-02T09:12:34;9.70;99.90
26326;DHT22;14032;52.510;7.342;2024-03-02T09:15:07;9.80;99.90
26326;DHT22;14032;52.510;7.342;2024-03-02T09:17:33;9.80;99.90
26326;DHT22;14032;52.510;7.342;2024-03-02T09:20:11;9.90;99.90
26326;DHT22;14032;52.510;7.342;2024-03-02T09:22:43;10.00;99.90
26326;DHT22;14032;52.510;7.342;2024-03-02T09:25:08;10.00;99.90
26326;DHT22;14032;52.510;7.342;2024-03-02T09:27:38;10.10;99.90
26326;DHT22;14032;52.510;7.342;2024-03-02T09:30:07;10.10;99.90
26326;DHT22;14032;52.510;7.342;2024-03-02T09:32:39;10.10;99.90
26326;DHT22;14032;52.510;7.342;2024-03-02T09:35:14;10.30;99.90
26326;DHT22;14032;52.510;7.342;2024-03-02T09:37:46;10.30;99.90
26326;DHT22;14032;52.510;7.342;2024-03-02T09:40:12;10.40;99.90
26326;DHT22;14032;52.510;7.342;2024-03-02T09:42:39;10.30;99.90
26326;DHT22;14032;52.510;7.342;2024-03-02T09:45:06;10.30;99.90
26326;DHT22;14032;52.510;7.342;2024-03-02T09:47:38;10.40;99.90
26326;DHT22;14032;52.510;7.342;2024-03-02T09:50:05;10.50;99.90
26326;DHT22;14032;52.510;7.342;2024-03-02T09:52:31;10.50;99.90
26326;DHT22;14032;52.510;7.342;2024-03-02T09:54:58;10.50;99.90
26326;DHT22;14032;52.510;7.342;2024-03-02T09:57:24;10.60;99.90
26326;DHT22;14032;52.510;7.342;2024-03-02T09:59:50;10.70;99.90
26326;DHT22;14032;52.510;7.342;2024-03-02T10:02:16;10.70;99.90
26326;DHT22;14032;52.510;7.342;2024-03-02T10:04:41;10.80;99.90
26326;DHT22;14032;52.510;7.342;2024-03-02T10:07:17;10.80;99.90
26326;DHT22;14032;52.510;7.342;2024-03-02T10:09:48;10.90;99.90
26326;DHT22;14032;52.510;7.342;2024-03-02T10:12:18;10.90;99.90
26326;DHT22;14032;52.510;7.342;2024-03-02T10:14:44;11.00;99.90
26326;DHT22;14032;52.510;7.342;2024-03-02T10:17:14;11.10;99.90
26326;DHT22;14032;52.510;7.342;2024-03-02T10:19:41;11.10;99.90
26326;DHT22;14032;52.510;7.342;2024-03-02T10:22:09;11.10;99.90
26326;DHT22;14032;52.510;7.342;2024-03-02T10:24:36;11.10;99.90
26326;DHT22;14032;52.510;7.342;2024-03-02T10:27:17;11.20;99.90
26326;DHT22;14032;52.510;7.342;2024-03-02T10:29:46;11.30;99.90
26326;DHT22;14032;52.510;7.342;2024-03-02T10:32:15;11.30;99.90
26326;DHT22;14032;52.510;7.342;2024-03-02T10:34:47;11.40;99.90
26326;DHT22;14032;52.510;7.342;2024-03-02T10:37:14;11.30;99.90
26326;DHT22;14032;52.510;7.342;2024-03-02T10:39:49;11.30;99.90
26326;DHT22;14032;52.510;7.342;2024-03-02T10:42:22;11.30;99.90
26326;DHT22;14032;52.510;7.342;2024-03-02T10:44:48;11.40;99.90
26326;DHT22;14032;52.510;7.342;2024-03-02T10:47:15;11.40;99.90
26326;DHT22;14032;52.510;7.342;2024-03-02T10:49:42;11.50;99.90
26326;DHT22;14032;52.510;7.342;2024-03-02T10:52:09;11.50;99.90
26326;DHT22;14032;52.510;7.342;2024-03-02T10:54:35;11.60;99.90
26326;DHT22;14032;52.510;7.342;2024-03-02T10:57:07;11.60;99.90
26326;DHT22;14032;52.510;7.342;2024-03-02T10:59:36;11.60;99.90
26326;DHT22;14032;52.510;7.342;2024-03-02T11:02:05;11.60;99.90
26326;DHT22;14032;52.510;7.342;2024-03-02T11:04:34;11.60;99.90
26326;DHT22;14032;52.510;7.342;2024-03-02T11:07:09;11.70;99.90
26326;DHT22;14032;52.510;7.342;2024-03-02T11:09:40;11.70;99.90
26326;DHT22;14032;52.510;7.342;2024-03-02T11:14:42;11.80;99.90
26326;DHT22;14032;52.510;7.342;2024-03-02T11:17:13;11.80;99.90
26326;DHT22;14032;52.510;7.342;2024-03-02T11:19:41;11.80;99.90
26326;DHT22;14032;52.510;7.342;2024-03-02T11:22:08;11.70;99.90
26326;DHT22;14032;52.510;7.342;2024-03-02T11:24:34;11.80;99.90
26326;DHT22;14032;52.510;7.342;2024-03-02T11:27:05;11.90;99.90
26326;DHT22;14032;52.510;7.342;2024-03-02T11:34:43;12.00;99.90
26326;DHT22;14032;52.510;7.342;2024-03-02T11:37:13;12.00;99.90
26326;DHT22;14032;52.510;7.342;2024-03-02T11:39:46;12.00;99.90
26326;DHT22;14032;52.510;7.342;2024-03-02T11:42:13;12.10;99.90
26326;DHT22;14032;52.510;7.342;2024-03-02T11:44:47;12.10;99.90
26326;DHT22;14032;52.510;7.342;2024-03-02T11:47:17;12.20;99.90
26326;DHT22;14032;52.510;7.342;2024-03-02T11:52:13;12.30;99.90
26326;DHT22;14032;52.510;7.342;2024-03-02T11:54:45;12.30;99.90
26326;DHT22;14032;52.510;7.342;2024-03-02T11:57:21;12.30;99.90
26326;DHT22;14032;52.510;7.342;2024-03-02T11:59:48;12.20;99.90
26326;DHT22;14032;52.510;7.342;2024-03-02T12:02:19;12.30;99.90
26326;DHT22;14032;52.510;7.342;2024-03-02T12:04:46;12.40;99.90
26326;DHT22;14032;52.510;7.342;2024-03-02T12:07:22;12.40;99.90
26326;DHT22;14032;52.510;7.342;2024-03-02T12:09:48;12.50;99.90
26326;DHT22;14032;52.510;7.342;2024-03-02T12:12:14;12.50;99.90
26326;DHT22;14032;52.510;7.342;2024-03-02T12:14:51;12.50;99.90
26326;DHT22;14032;52.510;7.342;2024-03-02T12:17:17;12.60;99.90
26326;DHT22;14032;52.510;7.342;2024-03-02T12:19:46;12.60;99.90
26326;DHT22;14032;52.510;7.342;2024-03-02T12:22:18;12.60;99.90
26326;DHT22;14032;52.510;7.342;2024-03-02T12:24:44;12.60;99.90
26326;DHT22;14032;52.510;7.342;2024-03-02T12:27:15;12.60;99.90
26326;DHT22;14032;52.510;7.342;2024-03-02T12:29:41;12.70;99.90
26326;DHT22;14032;52.510;7.342;2024-03-02T12:32:07;12.60;99.90
26326;DHT22;14032;52.510;7.342;2024-03-02T12:34:33;12.60;99.90
26326;DHT22;14032;52.510;7.342;2024-03-02T12:36:58;12.60;99.90
26326;DHT22;14032;52.510;7.342;2024-03-02T12:39:24;12.70;99.90
26326;DHT22;14032;52.510;7.342;2024-03-02T12:41:50;12.70;99.90
26326;DHT22;14032;52.510;7.342;2024-03-02T12:44:17;12.70;99.90
26326;DHT22;14032;52.510;7.342;2024-03-02T12:46:43;12.70;99.90
26326;DHT22;14032;52.510;7.342;2024-03-02T12:49:11;12.70;99.90
26326;DHT22;14032;52.510;7.342;2024-03-02T12:51:37;12.70;99.90
26326;DHT22;14032;52.510;7.342;2024-03-02T12:54:11;12.70;99.90
26326;DHT22;14032;52.510;7.342;2024-03-02T12:56:40;12.70;99.90
26326;DHT22;14032;52.510;7.342;2024-03-02T12:59:06;12.70;99.90
26326;DHT22;14032;52.510;7.342;2024-03-02T13:01:34;12.70;99.90
26326;DHT22;14032;52.510;7.342;2024-03-02T13:04:05;12.70;99.90
26326;DHT22;14032;52.510;7.342;2024-03-02T13:06:33;12.60;99.90
26326;DHT22;14032;52.510;7.342;2024-03-02T13:08:59;12.60;99.90
26326;DHT22;14032;52.510;7.342;2024-03-02T13:11:25;12.60;99.90
26326;DHT22;14032;52.510;7.342;2024-03-02T13:13:51;12.60;99.90
26326;DHT22;14032;52.510;7.342;2024-03-02T13:16:18;12.70;99.90
26326;DHT22;14032;52.510;7.342;2024-03-02T13:18:45;12.70;99.90
26326;DHT22;14032;52.510;7.342;2024-03-02T13:21:11;12.70;99.90
26326;DHT22;14032;52.510;7.342;2024-03-02T13:23:36;12.70;99.90
26326;DHT22;14032;52.510;7.342;2024-03-02T13:26:03;12.70;99.90
26326;DHT22;14032;52.510;7.342;2024-03-02T13:28:30;12.80;99.90
26326;DHT22;14032;52.510;7.342;2024-03-02T13:30:55;12.80;99.90
26326;DHT22;14032;52.510;7.342;2024-03-02T13:33:21;12.80;99.90
26326;DHT22;14032;52.510;7.342;2024-03-02T13:35:50;12.80;99.90
26326;DHT22;14032;52.510;7.342;2024-03-02T13:38:17;12.80;99.90
26326;DHT22;14032;52.510;7.342;2024-03-02T13:40:43;12.80;99.90
26326;DHT22;14032;52.510;7.342;2024-03-02T13:43:08;12.80;99.90
26326;DHT22;14032;52.510;7.342;2024-03-02T13:45:34;12.80;99.90
26326;DHT22;14032;52.510;7.342;2024-03-02T13:48:00;12.80;99.90
26326;DHT22;14032;52.510;7.342;2024-03-02T13:50:27;12.80;99.90
26326;DHT22;14032;52.510;7.342;2024-03-02T13:52:54;12.80;99.90
26326;DHT22;14032;52.510;7.342;2024-03-02T13:55:20;12.70;99.90
26326;DHT22;14032;52.510;7.342;2024-03-02T13:57:46;12.80;99.90
26326;DHT22;14032;52.510;7.342;2024-03-02T14:00:13;12.80;99.90
26326;DHT22;14032;52.510;7.342;2024-03-02T14:02:39;12.80;99.90
26326;DHT22;14032;52.510;7.342;2024-03-02T14:05:05;12.90;99.90
26326;DHT22;14032;52.510;7.342;2024-03-02T14:07:31;13.00;99.90
26326;DHT22;14032;52.510;7.342;2024-03-02T14:09:56;13.00;99.90
26326;DHT22;14032;52.510;7.342;2024-03-02T14:12:23;13.00;99.90
26326;DHT22;14032;52.510;7.342;2024-03-02T14:14:49;13.00;99.90
26326;DHT22;14032;52.510;7.342;2024-03-02T14:17:16;13.10;99.90
26326;DHT22;14032;52.510;7.342;2024-03-02T14:19:42;13.10;99.90
26326;DHT22;14032;52.510;7.342;2024-03-02T14:22:07;13.00;99.90
26326;DHT22;14032;52.510;7.342;2024-03-02T14:24:33;13.00;99.90
26326;DHT22;14032;52.510;7.342;2024-03-02T14:26:59;13.00;99.90
26326;DHT22;14032;52.510;7.342;2024-03-02T14:29:27;13.00;99.90
26326;DHT22;14032;52.510;7.342;2024-03-02T14:31:52;13.00;99.90
26326;DHT22;14032;52.510;7.342;2024-03-02T14:34:18;13.00;99.90
26326;DHT22;14032;52.510;7.342;2024-03-02T14:36:44;12.90;99.90
26326;DHT22;14032;52.510;7.342;2024-03-02T14:39:10;12.90;99.90
26326;DHT22;14032;52.510;7.342;2024-03-02T14:41:37;12.90;99.90
26326;DHT22;14032;52.510;7.342;2024-03-02T14:44:03;12.80;99.90
26326;DHT22;14032;52.510;7.342;2024-03-02T14:46:30;12.80;99.90
26326;DHT22;14032;52.510;7.342;2024-03-02T14:48:55;12.70;99.90
26326;DHT22;14032;52.510;7.342;2024-03-02T14:51:21;12.70;99.90
26326;DHT22;14032;52.510;7.342;2024-03-02T14:53:47;12.70;99.90
26326;DHT22;14032;52.510;7.342;2024-03-02T14:56:12;12.70;99.90
26326;DHT22;14032;52.510;7.342;2024-03-02T14:58:39;12.60;99.90
26326;DHT22;14032;52.510;7.342;2024-03-02T15:01:05;12.60;99.90
26326;DHT22;14032;52.510;7.342;2024-03-02T15:03:31;12.60;99.90
26326;DHT22;14032;52.510;7.342;2024-03-02T15:05:57;12.50;99.90
26326;DHT22;14032;52.510;7.342;2024-03-02T15:08:23;12.50;99.90
26326;DHT22;14032;52.510;7.342;2024-03-02T15:10:49;12.50;99.90
26326;DHT22;14032;52.510;7.342;2024-03-02T15:13:14;12.50;99.90
26326;DHT22;14032;52.510;7.342;2024-03-02T15:15:41;12.60;99.90
26326;DHT22;14032;52.510;7.342;2024-03-02T15:18:06;12.60;99.90
26326;DHT22;14032;52.510;7.342;2024-03-02T15:20:33;12.50;99.90
26326;DHT22;14032;52.510;7.342;2024-03-02T15:22:59;12.60;99.90
26326;DHT22;14032;52.510;7.342;2024-03-02T15:25:30;12.60;99.90
26326;DHT22;14032;52.510;7.342;2024-03-02T15:27:56;12.60;99.90
26326;DHT22;14032;52.510;7.342;2024-03-02T15:30:22;12.60;99.90
26326;DHT22;14032;52.510;7.342;2024-03-02T15:32:47;12.60;99.90
26326;DHT22;14032;52.510;7.342;2024-03-02T15:35:13;12.70;99.90
26326;DHT22;14032;52.510;7.342;2024-03-02T15:37:39;12.60;99.90
26326;DHT22;14032;52.510;7.342;2024-03-02T15:40:05;12.70;99.90
26326;DHT22;14032;52.510;7.342;2024-03-02T15:42:35;12.70;99.90
26326;DHT22;14032;52.510;7.342;2024-03-02T15:45:01;12.70;99.90
26326;DHT22;14032;52.510;7.342;2024-03-02T15:47:27;12.70;99.90
26326;DHT22;14032;52.510;7.342;2024-03-02T15:49:53;12.70;99.90